createdAt,value
2019-01-31T00:02:27.138Z,85.84
2019-01-31T00:05:21.596Z,85.62
2019-01-31T00:08:45.594Z,85.31
2019-01-31T00:12:02.538Z,84.98
2019-01-31T00:14:53.506Z,85.04
2019-01-31T00:17:55.861Z,85.27
2019-01-31T00:20:50.748Z,85.13
2019-01-31T00:24:11.188Z,85.47
2019-01-31T00:27:18.804Z,85.70
2019-01-31T00:30:06.202Z,85.47
2019-01-31T00:33:03.592Z,85.31
2019-01-31T00:36:10.601Z,85.17
2019-01-31T00:39:25.262Z,85.01
2019-01-31T00:42:19.913Z,84.99
2019-01-31T00:45:12.470Z,84.88
2019-01-31T00:48:09.218Z,84.90
2019-01-31T00:51:01.645Z,84.65
2019-01-31T00:53:46.067Z,84.60
2019-01-31T00:56:43.461Z,84.37
2019-01-31T01:00:00.740Z,84.39
2019-01-31T01:03:18.784Z,84.71
2019-01-31T01:06:15.824Z,84.91
2019-01-31T01:09:39.934Z,85.04
2019-01-31T01:12:53.842Z,84.98
2019-01-31T01:15:54.775Z,84.87
2019-01-31T01:18:59.568Z,84.78
2019-01-31T01:21:57.334Z,84.68
2019-01-31T01:25:14.791Z,84.51
2019-01-31T01:28:33.615Z,84.36
2019-01-31T01:31:29.402Z,83.79
2019-01-31T01:34:24.532Z,85.29
2019-01-31T01:37:26.636Z,84.81
2019-01-31T01:40:43.787Z,85.27
2019-01-31T01:43:26.848Z,84.61
2019-01-31T01:46:40.229Z,84.44
2019-01-31T01:49:41.290Z,85.94
2019-01-31T01:52:27.006Z,86.37
2019-01-31T01:55:18.198Z,85.09
2019-01-31T01:58:25.952Z,85.64
2019-01-31T02:01:37.639Z,86.91
2019-01-31T02:04:13.764Z,86.22
2019-01-31T02:07:34.057Z,86.87
2019-01-31T02:10:56.482Z,87.34
2019-01-31T02:14:06.598Z,86.04
2019-01-31T02:17:02.964Z,87.33
2019-01-31T02:20:10.315Z,87.62
2019-01-31T02:23:12.144Z,87.98
2019-01-31T02:26:15.920Z,87.36
2019-01-31T02:29:30.676Z,87.24
2019-01-31T02:32:15.741Z,87.20
2019-01-31T02:35:23.076Z,87.17
2019-01-31T02:38:49.677Z,87.36
2019-01-31T02:41:51.047Z,87.30
2019-01-31T02:44:56.355Z,87.07
2019-01-31T02:48:08.705Z,86.87
2019-01-31T02:50:58.469Z,86.96
2019-01-31T02:54:23.531Z,87.20
2019-01-31T02:57:23.737Z,87.16
2019-01-31T03:00:25.023Z,86.96
2019-01-31T03:03:23.566Z,86.87
2019-01-31T03:06:16.254Z,86.67
2019-01-31T03:09:05.732Z,86.19
2019-01-31T03:11:57.926Z,86.43
2019-01-31T03:14:33.575Z,86.84
2019-01-31T03:17:45.270Z,86.92
2019-01-31T03:20:46.753Z,87.46
2019-01-31T03:23:49.328Z,87.50
2019-01-31T03:26:54.957Z,86.98
2019-01-31T03:30:02.755Z,86.49
2019-01-31T03:32:57.891Z,86.94
2019-01-31T03:36:07.496Z,87.17
2019-01-31T03:38:49.997Z,87.03
2019-01-31T03:42:07.534Z,86.66
2019-01-31T03:45:04.253Z,86.39
2019-01-31T03:48:18.399Z,86.37
2019-01-31T03:51:16.518Z,86.30
2019-01-31T03:54:30.960Z,86.95
2019-01-31T03:57:34.357Z,87.05
2019-01-31T04:00:24.644Z,87.10
2019-01-31T04:03:22.675Z,86.73
2019-01-31T04:06:23.971Z,86.79
2019-01-31T04:08:54.610Z,86.58
2019-01-31T04:11:25.081Z,86.53
2019-01-31T04:13:55.526Z,86.02
2019-01-31T04:16:25.996Z,86.68
2019-01-31T04:18:56.492Z,87.31
2019-01-31T04:21:26.947Z,87.79
2019-01-31T04:23:57.654Z,87.80
2019-01-31T04:26:29.130Z,87.71
2019-01-31T04:28:59.615Z,87.68
2019-01-31T04:31:30.101Z,87.11
2019-01-31T04:34:00.560Z,87.45
2019-01-31T04:36:31.026Z,87.84
2019-01-31T04:39:01.553Z,87.54
2019-01-31T04:41:33.120Z,87.53
2019-01-31T04:44:04.658Z,87.63
2019-01-31T04:46:35.093Z,87.54
2019-01-31T04:49:06.111Z,86.58
2019-01-31T04:51:36.559Z,86.69
2019-01-31T04:54:07.024Z,86.34
2019-01-31T04:56:37.513Z,86.42
2019-01-31T04:59:07.990Z,86.74
2019-01-31T05:01:38.463Z,86.84
2019-01-31T05:04:08.988Z,87.43
2019-01-31T05:06:39.511Z,87.81
2019-01-31T05:09:10.042Z,87.98
2019-01-31T05:11:42.196Z,88.41
2019-01-31T05:14:12.789Z,88.09
2019-01-31T05:16:43.553Z,87.95
2019-01-31T05:19:14.049Z,87.78
2019-01-31T05:21:44.769Z,87.78
2019-01-31T05:24:15.331Z,87.85
2019-01-31T05:26:45.800Z,87.47
2019-01-31T05:29:16.280Z,87.85
2019-01-31T05:31:46.725Z,87.89
2019-01-31T05:34:17.178Z,88.31
2019-01-31T05:36:47.631Z,87.93
2019-01-31T05:39:18.089Z,87.62
2019-01-31T05:41:48.539Z,87.41
2019-01-31T05:44:19.021Z,87.13
2019-01-31T05:46:49.393Z,86.92
2019-01-31T05:49:19.834Z,87.39
2019-01-31T05:51:50.318Z,87.78
2019-01-31T05:54:20.795Z,88.25
2019-01-31T05:56:51.236Z,88.26
2019-01-31T05:59:21.613Z,88.01
2019-01-31T06:01:52.055Z,87.82
2019-01-31T06:04:22.736Z,87.77
2019-01-31T06:06:53.206Z,87.45
2019-01-31T06:09:23.702Z,87.74
2019-01-31T06:11:54.456Z,86.75
2019-01-31T06:14:24.899Z,86.56
2019-01-31T06:16:55.353Z,86.49
2019-01-31T06:19:25.783Z,85.86
2019-01-31T06:21:56.273Z,85.88
2019-01-31T06:24:26.773Z,86.27
2019-01-31T06:26:57.243Z,85.91
2019-01-31T06:29:27.689Z,85.42
2019-01-31T06:31:58.154Z,85.77
2019-01-31T06:34:28.671Z,85.64
2019-01-31T06:36:59.137Z,85.38
2019-01-31T06:39:29.649Z,86.55
2019-01-31T06:42:00.166Z,87.34
2019-01-31T06:44:30.684Z,87.43
2019-01-31T06:47:01.185Z,87.40
2019-01-31T06:49:31.676Z,87.33
2019-01-31T06:52:02.138Z,86.56
2019-01-31T06:54:32.600Z,86.42
2019-01-31T06:57:03.140Z,86.54
2019-01-31T06:59:33.619Z,87.28
2019-01-31T07:02:04.188Z,87.92
2019-01-31T07:04:34.662Z,87.95
2019-01-31T07:07:05.157Z,87.94
2019-01-31T07:09:35.648Z,87.48
2019-01-31T07:12:06.320Z,87.06
2019-01-31T07:14:36.798Z,87.00
2019-01-31T07:17:07.281Z,86.47
2019-01-31T07:19:37.759Z,86.46
2019-01-31T07:22:08.278Z,86.82
2019-01-31T07:24:38.752Z,87.12
2019-01-31T07:27:09.252Z,86.80
2019-01-31T07:29:39.748Z,86.47
2019-01-31T07:32:10.301Z,85.67
2019-01-31T07:34:41.017Z,86.04
2019-01-31T07:37:11.474Z,85.14
2019-01-31T07:39:41.987Z,85.38
2019-01-31T07:42:12.484Z,84.69
2019-01-31T07:44:42.979Z,85.75
2019-01-31T07:47:14.083Z,85.42
2019-01-31T07:49:44.577Z,85.79
2019-01-31T07:52:15.055Z,84.73
2019-01-31T07:54:45.554Z,85.95
2019-01-31T07:57:16.654Z,84.99
2019-01-31T07:59:47.161Z,84.58
2019-01-31T08:02:18.262Z,82.97
2019-01-31T08:04:49.303Z,84.33
2019-01-31T08:07:20.392Z,84.41
2019-01-31T08:09:51.483Z,85.40
2019-01-31T08:12:21.941Z,83.91
2019-01-31T08:14:53.003Z,84.07
2019-01-31T08:17:24.074Z,84.22
2019-01-31T08:19:55.130Z,84.26
2019-01-31T08:22:26.196Z,84.61
2019-01-31T08:24:57.348Z,85.20
2019-01-31T08:27:28.456Z,85.34
2019-01-31T08:29:59.547Z,84.24
2019-01-31T08:32:30.013Z,84.33
2019-01-31T08:35:01.204Z,84.12
2019-01-31T08:37:32.297Z,83.57
2019-01-31T08:40:03.500Z,83.35
2019-01-31T08:42:34.002Z,84.24
2019-01-31T08:45:05.172Z,83.59
2019-01-31T08:47:36.223Z,83.40
2019-01-31T08:50:08.583Z,83.61
2019-01-31T08:52:41.653Z,84.40
2019-01-31T08:55:12.382Z,82.28
2019-01-31T08:57:43.449Z,81.08
2019-01-31T09:00:21.015Z,81.88
2019-01-31T09:02:52.052Z,81.91
2019-01-31T09:05:23.121Z,82.93
2019-01-31T09:07:54.172Z,83.39
2019-01-31T09:10:30.522Z,82.19
2019-01-31T09:13:04.555Z,80.56
2019-01-31T09:15:35.630Z,80.90
2019-01-31T09:18:07.342Z,80.21
2019-01-31T09:20:45.110Z,81.25
2019-01-31T09:23:24.093Z,81.32
2019-01-31T09:26:37.803Z,81.04
2019-01-31T09:29:26.874Z,82.05
2019-01-31T09:32:32.416Z,82.59
2019-01-31T09:35:41.688Z,82.16
2019-01-31T09:38:52.499Z,82.74
2019-01-31T09:41:42.147Z,82.45
2019-01-31T09:45:15.316Z,82.48
2019-01-31T09:48:37.434Z,81.97
2019-01-31T09:51:20.418Z,82.36
2019-01-31T09:54:22.370Z,81.96
2019-01-31T09:57:11.351Z,81.66
2019-01-31T10:00:33.092Z,83.00
2019-01-31T10:03:13.404Z,82.20
2019-01-31T10:06:12.681Z,82.33
2019-01-31T10:09:36.561Z,82.65
2019-01-31T10:12:57.547Z,82.80
2019-01-31T10:16:09.815Z,82.32
2019-01-31T10:19:36.994Z,80.59
2019-01-31T10:22:43.988Z,80.20
2019-01-31T10:25:49.434Z,80.16
2019-01-31T10:29:06.813Z,81.14
2019-01-31T10:32:31.220Z,80.53
2019-01-31T10:36:01.306Z,81.66
2019-01-31T10:38:49.027Z,81.53
2019-01-31T10:41:56.708Z,81.29
2019-01-31T10:45:03.726Z,81.28
2019-01-31T10:48:12.472Z,81.75
2019-01-31T10:51:32.280Z,79.68
2019-01-31T10:54:35.491Z,80.46
2019-01-31T10:57:38.521Z,80.39
2019-01-31T11:00:45.420Z,79.04
2019-01-31T11:03:58.672Z,78.97
2019-01-31T11:06:57.335Z,78.08
2019-01-31T11:10:14.168Z,77.56
2019-01-31T11:13:40.204Z,77.21
2019-01-31T11:17:07.320Z,74.44
2019-01-31T11:20:15.389Z,76.81
2019-01-31T11:23:22.968Z,77.79
2019-01-31T11:26:47.529Z,75.63
2019-01-31T11:29:43.403Z,74.52
2019-01-31T11:32:52.955Z,75.69
2019-01-31T11:36:15.596Z,76.09
2019-01-31T11:39:21.564Z,76.94
2019-01-31T11:42:31.827Z,76.21
2019-01-31T11:45:43.789Z,76.90
2019-01-31T11:48:48.229Z,77.26
2019-01-31T11:51:53.025Z,77.66
2019-01-31T11:54:55.155Z,76.55
2019-01-31T11:58:02.245Z,78.19
2019-01-31T12:00:33.947Z,77.99
2019-01-31T12:03:05.060Z,78.34
2019-01-31T12:05:36.723Z,79.06
2019-01-31T12:08:07.837Z,78.88
2019-01-31T12:10:38.901Z,79.20
2019-01-31T12:13:09.871Z,78.84
2019-01-31T12:15:40.954Z,79.21
2019-01-31T12:18:12.082Z,79.92
2019-01-31T12:20:43.155Z,78.80
2019-01-31T12:23:14.289Z,79.18
2019-01-31T12:25:45.313Z,79.62
2019-01-31T12:28:16.340Z,79.10
2019-01-31T12:30:47.381Z,80.27
2019-01-31T12:33:18.483Z,80.27
2019-01-31T12:35:49.518Z,80.57
2019-01-31T12:38:20.803Z,79.74
2019-01-31T12:40:51.843Z,80.68
2019-01-31T12:43:34.303Z,79.17
2019-01-31T12:45:55.652Z,79.28
2019-01-31T12:48:26.808Z,79.94
2019-01-31T12:50:57.840Z,80.52
2019-01-31T12:53:28.830Z,79.86
2019-01-31T12:55:59.933Z,80.28
2019-01-31T12:58:33.606Z,80.10
2019-01-31T13:01:05.161Z,79.63
2019-01-31T13:03:36.260Z,80.48
2019-01-31T13:06:07.304Z,80.47
2019-01-31T13:08:38.349Z,80.32
2019-01-31T13:11:09.393Z,80.12
2019-01-31T13:13:46.099Z,79.90
2019-01-31T13:16:13.199Z,80.59
2019-01-31T13:18:44.261Z,80.61
2019-01-31T13:21:15.308Z,80.76
2019-01-31T13:23:46.368Z,80.58
2019-01-31T13:26:17.336Z,80.62
2019-01-31T13:28:48.393Z,80.46
2019-01-31T13:31:19.450Z,80.73
2019-01-31T13:33:50.505Z,80.89
2019-01-31T13:36:22.836Z,81.06
2019-01-31T13:38:53.899Z,81.01
2019-01-31T13:41:24.972Z,81.12
2019-01-31T13:43:57.727Z,81.34
2019-01-31T13:46:28.795Z,81.27
2019-01-31T13:48:59.863Z,81.36
2019-01-31T13:51:30.927Z,81.98
2019-01-31T13:54:01.980Z,82.17
2019-01-31T13:56:44.919Z,82.05
2019-01-31T13:59:05.999Z,82.27
2019-01-31T14:01:37.052Z,82.04
2019-01-31T14:04:08.089Z,81.67
2019-01-31T14:06:39.137Z,81.58
2019-01-31T14:09:10.520Z,81.38
2019-01-31T14:11:41.573Z,82.02
2019-01-31T14:14:12.639Z,81.67
2019-01-31T14:16:47.799Z,81.34
2019-01-31T14:19:16.427Z,81.24
2019-01-31T14:21:47.628Z,81.34
2019-01-31T14:24:18.756Z,81.05
2019-01-31T14:26:49.803Z,80.75
2019-01-31T14:29:21.913Z,80.93
2019-01-31T14:31:52.962Z,81.11
2019-01-31T14:34:23.978Z,81.30
2019-01-31T14:36:55.023Z,81.40
2019-01-31T14:39:26.114Z,81.50
2019-01-31T14:41:57.156Z,81.67
2019-01-31T14:44:28.213Z,81.25
2019-01-31T14:46:59.280Z,81.72
2019-01-31T14:49:30.289Z,82.02
2019-01-31T14:52:01.329Z,82.11
2019-01-31T14:54:32.388Z,82.46
2019-01-31T14:57:04.449Z,82.60
2019-01-31T14:59:35.522Z,82.91
2019-01-31T15:02:06.673Z,83.14
2019-01-31T15:04:37.721Z,83.32
2019-01-31T15:07:08.786Z,83.02
2019-01-31T15:09:39.867Z,83.28
2019-01-31T15:12:10.907Z,83.20
2019-01-31T15:14:42.007Z,83.54
2019-01-31T15:17:13.086Z,83.75
2019-01-31T15:19:44.224Z,83.90
2019-01-31T15:22:15.217Z,84.36
2019-01-31T15:24:46.517Z,84.82
2019-01-31T15:27:17.634Z,84.63
2019-01-31T15:29:48.674Z,84.31
2019-01-31T15:32:20.073Z,84.45
2019-01-31T15:34:51.150Z,84.40
2019-01-31T15:37:22.222Z,84.70
2019-01-31T15:39:53.262Z,84.86
2019-01-31T15:42:24.356Z,84.90
2019-01-31T15:44:55.405Z,84.68
2019-01-31T15:47:26.454Z,84.72
2019-01-31T15:49:57.552Z,84.98
2019-01-31T15:52:28.641Z,85.22
2019-01-31T15:54:59.730Z,85.61
2019-01-31T15:57:30.895Z,85.56
2019-01-31T16:00:01.969Z,85.58
2019-01-31T16:02:33.070Z,85.72
2019-01-31T16:05:04.153Z,85.34
2019-01-31T16:07:35.247Z,85.36
2019-01-31T16:10:06.337Z,85.35
2019-01-31T16:12:37.399Z,85.37
2019-01-31T16:15:09.569Z,85.16
2019-01-31T16:17:40.673Z,85.42
2019-01-31T16:20:12.983Z,85.39
2019-01-31T16:22:44.107Z,85.20
2019-01-31T16:25:16.454Z,85.30
2019-01-31T16:27:47.505Z,85.56
2019-01-31T16:30:21.101Z,85.38
2019-01-31T16:32:52.203Z,85.51
2019-01-31T16:35:24.310Z,85.49
2019-01-31T16:37:55.519Z,85.47
2019-01-31T16:40:26.640Z,85.63
2019-01-31T16:42:57.700Z,85.98
2019-01-31T16:45:28.799Z,86.10
2019-01-31T16:47:59.880Z,86.45
2019-01-31T16:50:30.957Z,86.46
2019-01-31T16:53:02.070Z,86.21
2019-01-31T16:55:33.115Z,86.17
2019-01-31T16:58:04.306Z,85.84
2019-01-31T17:00:35.457Z,85.87
2019-01-31T17:03:07.318Z,85.69
2019-01-31T17:05:38.398Z,85.47
2019-01-31T17:08:10.474Z,85.34
2019-01-31T17:10:43.280Z,85.20
2019-01-31T17:13:14.379Z,85.33
2019-01-31T17:15:45.469Z,85.62
2019-01-31T17:18:16.585Z,85.64
2019-01-31T17:20:47.737Z,85.58
2019-01-31T17:23:18.884Z,85.53
2019-01-31T17:25:49.988Z,85.47
2019-01-31T17:28:21.072Z,85.42
2019-01-31T17:30:51.554Z,85.28
2019-01-31T17:33:22.783Z,85.30
2019-01-31T17:35:53.885Z,85.18
2019-01-31T17:38:25.997Z,85.63
2019-01-31T17:40:57.117Z,85.45
2019-01-31T17:43:29.728Z,85.26
2019-01-31T17:46:01.146Z,85.23
2019-01-31T17:48:35.316Z,85.23
2019-01-31T17:51:05.296Z,85.06
2019-01-31T17:53:36.433Z,85.17
2019-01-31T17:56:07.545Z,85.10
2019-01-31T17:58:38.113Z,85.16
2019-01-31T18:01:09.178Z,85.19
2019-01-31T18:03:40.315Z,85.36
2019-01-31T18:06:11.389Z,85.39
2019-01-31T18:08:42.506Z,85.72
2019-01-31T18:11:13.684Z,85.39
2019-01-31T18:13:44.900Z,85.61
2019-01-31T18:16:17.506Z,85.38
2019-01-31T18:18:49.091Z,84.52
2019-01-31T18:21:20.165Z,83.74
2019-01-31T18:23:51.298Z,82.96
2019-01-31T18:26:22.427Z,82.68
2019-01-31T18:28:52.956Z,82.84
2019-01-31T18:31:24.449Z,81.10
2019-01-31T18:33:57.085Z,79.51
2019-01-31T18:36:27.605Z,79.54
2019-01-31T18:38:58.733Z,78.73
2019-01-31T18:41:29.198Z,79.02
2019-01-31T18:43:59.728Z,78.02
2019-01-31T18:46:30.239Z,78.71
2019-01-31T18:49:00.828Z,78.87
2019-01-31T18:51:31.322Z,78.38
2019-01-31T18:54:01.821Z,78.49
2019-01-31T18:56:32.311Z,78.14
2019-01-31T18:59:03.399Z,78.87
2019-01-31T19:01:33.994Z,78.85
2019-01-31T19:04:05.068Z,79.20
2019-01-31T19:06:36.224Z,78.41
2019-01-31T19:09:06.731Z,78.54
2019-01-31T19:11:37.259Z,78.56
2019-01-31T19:14:07.754Z,79.05
2019-01-31T19:16:38.842Z,78.75
2019-01-31T19:19:09.928Z,78.35
2019-01-31T19:21:40.436Z,77.74
2019-01-31T19:24:10.920Z,77.65
2019-01-31T19:26:42.002Z,77.49
2019-01-31T19:29:12.780Z,77.15
2019-01-31T19:31:43.942Z,76.81
2019-01-31T19:34:15.235Z,76.33
2019-01-31T19:36:45.822Z,77.61
2019-01-31T19:39:18.920Z,77.17
2019-01-31T19:41:49.454Z,77.45
2019-01-31T19:44:19.927Z,77.75
2019-01-31T19:46:50.418Z,78.09
2019-01-31T19:49:21.012Z,78.06
2019-01-31T19:51:51.578Z,78.11
2019-01-31T19:54:24.160Z,78.10
2019-01-31T19:56:54.652Z,78.29
2019-01-31T19:59:25.951Z,78.06
2019-01-31T20:01:56.437Z,78.73
2019-01-31T20:04:27.098Z,78.30
2019-01-31T20:06:57.561Z,79.44
2019-01-31T20:09:29.228Z,78.98
2019-01-31T20:11:59.734Z,79.37
2019-01-31T20:14:30.214Z,79.70
2019-01-31T20:17:01.358Z,78.94
2019-01-31T20:19:32.886Z,78.80
2019-01-31T20:22:03.744Z,78.97
2019-01-31T20:24:34.208Z,79.37
2019-01-31T20:27:04.674Z,78.44
2019-01-31T20:29:35.153Z,77.57
2019-01-31T20:32:06.136Z,77.75
2019-01-31T20:34:37.984Z,77.62
2019-01-31T20:37:10.121Z,76.69
2019-01-31T20:39:40.641Z,76.37
2019-01-31T20:42:11.707Z,76.02
2019-01-31T20:44:42.779Z,75.77
2019-01-31T20:47:15.868Z,75.07
2019-01-31T20:49:46.599Z,75.79
2019-01-31T20:52:17.653Z,74.98
2019-01-31T20:54:48.112Z,75.23
2019-01-31T20:57:18.540Z,75.20
2019-01-31T20:59:49.114Z,76.41
2019-01-31T21:02:21.887Z,77.17
2019-01-31T21:04:52.459Z,78.32
2019-01-31T21:07:23.020Z,79.03
2019-01-31T21:09:53.543Z,78.45
2019-01-31T21:12:24.286Z,78.50
2019-01-31T21:14:54.738Z,78.35
2019-01-31T21:17:25.517Z,78.00
2019-01-31T21:19:55.971Z,77.42
2019-01-31T21:22:26.561Z,77.00
2019-01-31T21:24:56.996Z,76.19
2019-01-31T21:28:18.931Z,74.67
2019-01-31T21:30:45.205Z,75.69
2019-01-31T21:33:11.278Z,76.17
2019-01-31T21:35:37.551Z,76.09
2019-01-31T21:38:03.839Z,76.18
2019-01-31T21:40:33.872Z,75.70
2019-01-31T21:43:00.153Z,75.38
2019-01-31T21:45:26.326Z,75.36
2019-01-31T21:47:52.625Z,75.19
2019-01-31T21:50:21.812Z,74.16
2019-01-31T21:52:48.099Z,74.68
2019-01-31T21:55:14.593Z,73.83
2019-01-31T21:57:40.667Z,74.48
2019-01-31T22:00:32.955Z,75.21
2019-01-31T22:02:59.251Z,75.61
2019-01-31T22:05:25.519Z,75.77
2019-01-31T22:07:51.701Z,75.76
2019-01-31T22:10:18.728Z,75.83
2019-01-31T22:12:44.971Z,74.67
2019-01-31T22:15:20.351Z,74.12
2019-01-31T22:17:46.530Z,73.64
2019-01-31T22:20:12.778Z,73.55
2019-01-31T22:22:39.013Z,73.71
2019-01-31T22:25:08.598Z,73.82
2019-01-31T22:27:34.766Z,74.29
2019-01-31T22:30:01.271Z,74.95
2019-01-31T22:32:27.541Z,74.92
2019-01-31T22:34:53.828Z,75.18
2019-01-31T22:37:19.992Z,74.89
2019-01-31T22:39:46.175Z,73.27
2019-01-31T22:42:12.343Z,73.35
2019-01-31T22:44:38.608Z,72.69
2019-01-31T22:47:04.760Z,73.08
2019-01-31T22:49:31.035Z,73.71
2019-01-31T22:51:57.232Z,73.40
2019-01-31T22:54:23.479Z,73.96
2019-01-31T22:56:49.622Z,74.18
2019-01-31T22:59:15.718Z,74.46
2019-01-31T23:04:33.516Z,75.20
2019-01-31T23:06:59.566Z,75.65
2019-01-31T23:09:25.633Z,75.85
2019-01-31T23:11:51.797Z,76.09
2019-01-31T23:14:17.970Z,75.55
2019-01-31T23:16:44.219Z,75.14
2019-01-31T23:19:10.372Z,75.03
2019-01-31T23:21:36.444Z,75.39
2019-01-31T23:24:02.931Z,75.32
2019-01-31T23:26:28.980Z,75.55
2019-01-31T23:28:55.165Z,75.97
2019-01-31T23:31:21.310Z,76.55
2019-01-31T23:33:47.379Z,76.89
2019-01-31T23:36:13.559Z,77.27
2019-01-31T23:38:39.505Z,77.47
2019-01-31T23:41:05.565Z,77.54
2019-01-31T23:43:31.516Z,77.72
2019-01-31T23:45:57.684Z,77.52
2019-01-31T23:48:23.765Z,77.92
2019-01-31T23:50:49.814Z,77.82
2019-01-31T23:53:15.987Z,77.88
2019-01-31T23:55:42.292Z,77.47
2019-01-31T23:58:08.438Z,77.40
